Culmore, United Kingdom
Current Conditions -  °F | °C
As of 4:20 PM on Sunday 21 Dec 2014 (Local Time) from EGAE Reporting Station
Light Rain Light Rain  
Wind Chill: 12°   Ceiling: 1600
Heat Index: 12°   Visibility: 6mi
Dew Point: 10°   Wind: 28mph
Humidity: 88%   Direction: 230°SW
Pressure: 29.77"   Gusts: NA
Location:  55.05°N, 7.27°W
Report Text: EGAE 211620Z 23024KT 9999 -RA SCT009 OVC016 12/10 Q1008
Loading
Personal Weather Stations






























Interactive Weather Map New forecast layout! Learn more

10-Day Weather Forecast

Advertisements
Track Severe Weather on mobile